createdAt,value
2022-08-30T00:00:16.001Z,78.60
2022-08-30T00:02:44.508Z,78.70
2022-08-30T00:05:13.318Z,78.40
2022-08-30T00:07:41.175Z,78.30
2022-08-30T00:10:10.971Z,78.40
2022-08-30T00:12:38.950Z,78.40
2022-08-30T00:15:09.258Z,78.40
2022-08-30T00:17:39.676Z,78.70
2022-08-30T00:20:10.608Z,78.70
2022-08-30T00:22:38.329Z,78.50
2022-08-30T00:25:07.200Z,78.90
2022-08-30T00:27:36.513Z,78.70
2022-08-30T00:30:05.299Z,78.30
2022-08-30T00:32:33.257Z,78.30
2022-08-30T00:35:01.178Z,78.40
2022-08-30T00:37:29.226Z,78.40
2022-08-30T00:39:57.165Z,78.50
2022-08-30T00:42:25.995Z,79.80
2022-08-30T00:44:55.286Z,79.60
2022-08-30T00:47:23.162Z,80.40
2022-08-30T00:49:54.630Z,80.90
2022-08-30T00:52:24.690Z,81.50
2022-08-30T00:54:53.695Z,82.60
2022-08-30T00:57:21.693Z,82.50
2022-08-30T00:59:51.094Z,82.80
2022-08-30T01:02:23.467Z,82.90
2022-08-30T01:04:52.451Z,83.10
2022-08-30T01:07:20.518Z,83.30
2022-08-30T01:09:48.522Z,82.60
2022-08-30T01:12:17.377Z,82.10
2022-08-30T01:14:47.581Z,81.80
2022-08-30T01:17:17.341Z,81.50
2022-08-30T01:19:53.430Z,81.80
2022-08-30T01:22:28.981Z,80.80
2022-08-30T01:25:01.370Z,81.20
2022-08-30T01:27:31.048Z,81.20
2022-08-30T01:29:59.928Z,81.20
2022-08-30T01:32:29.875Z,81.70
2022-08-30T01:34:58.562Z,82.30
2022-08-30T01:37:29.833Z,82.80
2022-08-30T01:39:59.362Z,83.50
2022-08-30T01:42:28.036Z,84.00
2022-08-30T01:44:56.071Z,83.80
2022-08-30T01:47:24.043Z,83.60
2022-08-30T01:49:52.164Z,83.10
2022-08-30T01:52:20.847Z,82.60
2022-08-30T01:54:48.857Z,82.70
2022-08-30T01:57:20.982Z,82.70
2022-08-30T01:59:50.213Z,83.30
2022-08-30T02:02:20.833Z,84.10
2022-08-30T02:04:48.730Z,84.30
2022-08-30T02:07:17.146Z,84.40
2022-08-30T02:09:46.267Z,84.30
2022-08-30T02:12:15.245Z,84.00
2022-08-30T02:14:44.747Z,83.60
2022-08-30T02:17:15.162Z,83.50
2022-08-30T02:19:44.156Z,83.30
2022-08-30T02:22:12.684Z,82.90
2022-08-30T02:24:40.856Z,83.20
2022-08-30T02:27:08.753Z,83.20
2022-08-30T02:29:36.746Z,83.00
2022-08-30T02:32:06.422Z,84.00
2022-08-30T02:34:34.316Z,84.90
2022-08-30T02:37:02.261Z,85.40
2022-08-30T02:39:30.206Z,85.90
2022-08-30T02:41:58.178Z,86.40
2022-08-30T02:44:26.042Z,86.40
2022-08-30T02:46:53.944Z,86.70
2022-08-30T02:49:33.137Z,86.30
2022-08-30T02:52:01.967Z,85.90
2022-08-30T02:54:32.921Z,86.00
2022-08-30T02:57:04.523Z,85.50
2022-08-30T02:59:32.817Z,85.70
2022-08-30T03:02:00.724Z,86.40
2022-08-30T03:04:30.098Z,85.70
2022-08-30T03:06:58.968Z,85.60
2022-08-30T03:09:26.822Z,85.50
2022-08-30T03:11:55.041Z,85.10
2022-08-30T03:14:22.944Z,84.90
2022-08-30T03:16:51.472Z,84.80
2022-08-30T03:19:20.230Z,85.00
2022-08-30T03:21:50.298Z,85.50
2022-08-30T03:24:18.193Z,85.80
2022-08-30T03:26:46.678Z,86.30
2022-08-30T03:29:15.092Z,86.20
2022-08-30T03:31:52.964Z,86.70
2022-08-30T03:34:21.814Z,86.70
2022-08-30T03:36:51.358Z,86.60
2022-08-30T03:39:19.323Z,87.00
2022-08-30T03:41:47.308Z,87.20
2022-08-30T03:44:15.183Z,87.40
2022-08-30T03:46:43.393Z,87.50
2022-08-30T03:49:11.260Z,87.50
2022-08-30T03:51:39.121Z,87.90
2022-08-30T03:54:08.406Z,88.30
2022-08-30T03:56:36.343Z,88.40
2022-08-30T03:59:05.025Z,89.00
2022-08-30T04:01:33.148Z,89.30
2022-08-30T04:04:01.202Z,88.70
2022-08-30T04:06:30.597Z,88.50
2022-08-30T04:08:58.410Z,88.00
2022-08-30T04:11:27.706Z,88.30
2022-08-30T04:13:56.658Z,88.70
2022-08-30T04:16:25.018Z,88.90
2022-08-30T04:18:53.584Z,90.00
2022-08-30T04:21:21.515Z,89.70
2022-08-30T04:23:49.440Z,89.90
2022-08-30T04:26:17.507Z,89.90
2022-08-30T04:28:46.736Z,90.00
2022-08-30T04:31:16.830Z,90.10
2022-08-30T04:33:44.952Z,90.20
2022-08-30T04:36:13.735Z,90.30
2022-08-30T04:38:42.551Z,90.20
2022-08-30T04:41:13.090Z,90.40
2022-08-30T04:43:41.179Z,90.40
2022-08-30T04:46:10.703Z,90.40
2022-08-30T04:48:39.171Z,90.40
2022-08-30T04:51:08.762Z,90.30
2022-08-30T04:53:37.763Z,90.40
2022-08-30T04:56:09.065Z,90.40
2022-08-30T04:58:37.018Z,90.40
2022-08-30T05:01:05.731Z,90.50
2022-08-30T05:03:39.233Z,90.80
2022-08-30T05:06:07.518Z,90.70
2022-08-30T05:08:35.442Z,90.70
2022-08-30T05:11:05.773Z,90.70
2022-08-30T05:13:35.699Z,90.80
2022-08-30T05:16:07.824Z,90.90
2022-08-30T05:18:35.894Z,91.20
2022-08-30T05:21:11.403Z,91.30
2022-08-30T05:23:41.246Z,91.50
2022-08-30T05:26:11.275Z,91.90
2022-08-30T05:28:39.353Z,92.20
2022-08-30T05:31:15.366Z,92.10
2022-08-30T05:33:43.834Z,91.90
2022-08-30T05:36:15.926Z,91.80
2022-08-30T05:38:44.734Z,91.80
2022-08-30T05:41:13.025Z,91.80
2022-08-30T05:43:41.284Z,92.00
2022-08-30T05:46:11.701Z,91.90
2022-08-30T05:48:40.539Z,92.00
2022-08-30T05:51:10.915Z,92.00
2022-08-30T05:53:41.765Z,91.90
2022-08-30T05:56:11.852Z,92.00
2022-08-30T05:58:40.650Z,92.00
2022-08-30T06:01:20.309Z,92.10
2022-08-30T06:03:48.907Z,92.00
2022-08-30T06:06:16.920Z,92.10
2022-08-30T06:08:47.388Z,92.10
2022-08-30T06:11:16.957Z,92.20
2022-08-30T06:13:44.855Z,92.20
2022-08-30T06:16:14.142Z,92.10
2022-08-30T06:18:42.157Z,92.00
2022-08-30T06:21:16.163Z,92.10
2022-08-30T06:23:44.663Z,92.00
2022-08-30T06:26:14.485Z,92.00
2022-08-30T06:28:42.409Z,91.90
2022-08-30T06:31:11.598Z,91.70
2022-08-30T06:33:40.290Z,91.80
2022-08-30T06:36:11.254Z,91.60
2022-08-30T06:38:40.030Z,91.70
2022-08-30T06:41:09.123Z,91.60
2022-08-30T06:43:38.607Z,91.50
2022-08-30T06:46:08.256Z,91.50
2022-08-30T06:48:36.226Z,91.50
2022-08-30T06:51:04.438Z,91.60
2022-08-30T06:53:32.547Z,91.60
2022-08-30T06:56:02.419Z,91.50
2022-08-30T06:58:31.286Z,91.50
2022-08-30T07:01:00.664Z,91.40
2022-08-30T07:03:28.848Z,91.40
2022-08-30T07:05:57.943Z,91.30
2022-08-30T07:08:27.213Z,91.30
2022-08-30T07:10:56.223Z,91.40
2022-08-30T07:13:24.885Z,91.40
2022-08-30T07:15:53.106Z,91.40
2022-08-30T07:18:40.215Z,91.50
2022-08-30T07:21:10.535Z,91.40
2022-08-30T07:23:38.871Z,91.40
2022-08-30T07:26:08.155Z,91.40
2022-08-30T07:28:38.694Z,91.50
2022-08-30T07:33:41.395Z,91.20
2022-08-30T07:36:09.794Z,91.10
2022-08-30T07:38:37.667Z,90.80
2022-08-30T07:41:06.463Z,90.80
2022-08-30T07:43:35.970Z,90.90
2022-08-30T07:46:05.795Z,90.80
2022-08-30T07:48:34.423Z,90.40
2022-08-30T07:51:05.539Z,90.60
2022-08-30T07:53:33.612Z,90.50
2022-08-30T07:56:04.871Z,90.40
2022-08-30T07:58:33.384Z,90.40
2022-08-30T08:01:02.330Z,90.70
2022-08-30T08:03:30.942Z,90.90
2022-08-30T08:05:59.301Z,91.10
2022-08-30T08:08:28.542Z,90.90
2022-08-30T08:10:56.941Z,90.70
2022-08-30T08:13:28.006Z,90.40
2022-08-30T08:16:00.476Z,90.20
2022-08-30T08:18:28.801Z,90.30
2022-08-30T08:20:56.950Z,90.00
2022-08-30T08:23:25.101Z,90.30
2022-08-30T08:25:54.726Z,90.30
2022-08-30T08:28:23.036Z,90.40
2022-08-30T08:30:51.319Z,90.30
2022-08-30T08:33:19.948Z,90.30
2022-08-30T08:35:48.310Z,89.90
2022-08-30T08:38:16.427Z,89.60
2022-08-30T08:40:53.638Z,90.00
2022-08-30T08:43:27.022Z,89.80
2022-08-30T08:46:02.115Z,89.80
2022-08-30T08:48:51.813Z,89.80
2022-08-30T08:51:45.515Z,90.00
2022-08-30T08:54:19.902Z,89.30
2022-08-30T08:56:47.991Z,90.00
2022-08-30T08:59:18.468Z,89.50
2022-08-30T09:01:47.578Z,89.70
2022-08-30T09:04:20.655Z,88.90
2022-08-30T09:06:57.845Z,87.70
2022-08-30T09:09:30.233Z,88.00
2022-08-30T09:11:58.696Z,87.50
2022-08-30T09:14:30.921Z,88.30
2022-08-30T09:17:03.007Z,87.40
2022-08-30T09:19:41.483Z,87.00
2022-08-30T09:22:26.222Z,87.20
2022-08-30T09:25:00.555Z,85.80
2022-08-30T09:27:33.115Z,85.90
2022-08-30T09:30:06.536Z,86.00
2022-08-30T09:32:38.334Z,85.80
2022-08-30T09:35:10.075Z,84.10
2022-08-30T09:37:47.062Z,85.20
2022-08-30T09:40:23.205Z,85.80
2022-08-30T09:43:03.243Z,82.90
2022-08-30T09:45:36.568Z,84.20
2022-08-30T09:48:23.460Z,84.60
2022-08-30T09:50:59.427Z,84.80
2022-08-30T09:53:34.309Z,84.60
2022-08-30T09:56:10.234Z,84.20
2022-08-30T09:58:54.584Z,84.00
2022-08-30T10:01:30.491Z,83.30
2022-08-30T10:04:06.667Z,84.30
2022-08-30T10:06:42.693Z,84.30
2022-08-30T10:09:21.120Z,83.20
2022-08-30T10:11:57.618Z,83.50
2022-08-30T10:14:52.693Z,82.80
2022-08-30T10:17:41.243Z,82.10
2022-08-30T10:20:20.263Z,82.80
2022-08-30T10:22:53.195Z,82.50
2022-08-30T10:25:26.985Z,82.40
2022-08-30T10:27:59.676Z,81.60
2022-08-30T10:30:31.608Z,80.80
2022-08-30T10:33:07.000Z,80.50
2022-08-30T10:35:40.965Z,80.30
2022-08-30T10:38:19.771Z,79.80
2022-08-30T10:41:08.929Z,79.60
2022-08-30T10:43:46.751Z,79.40
2022-08-30T10:46:25.448Z,80.20
2022-08-30T10:48:57.589Z,80.00
2022-08-30T10:51:33.666Z,80.50
2022-08-30T10:54:09.261Z,80.20
2022-08-30T10:56:41.498Z,80.80
2022-08-30T10:59:11.943Z,81.00
2022-08-30T11:02:11.416Z,79.60
2022-08-30T11:05:04.400Z,79.10
2022-08-30T11:07:41.902Z,78.80
2022-08-30T11:10:23.498Z,79.00
2022-08-30T11:13:00.718Z,79.10
2022-08-30T11:15:31.466Z,78.70
2022-08-30T11:18:02.836Z,78.70
2022-08-30T11:20:40.982Z,79.40
2022-08-30T11:23:32.737Z,78.90
2022-08-30T11:26:03.879Z,78.00
2022-08-30T11:29:03.405Z,78.10
2022-08-30T11:31:38.473Z,78.90
2022-08-30T11:34:09.670Z,77.70
2022-08-30T11:37:10.285Z,77.20
2022-08-30T11:39:57.169Z,77.00
2022-08-30T11:42:44.483Z,76.30
2022-08-30T11:46:00.220Z,76.70
2022-08-30T11:48:54.384Z,76.20
2022-08-30T11:52:23.751Z,76.60
2022-08-30T11:55:02.499Z,76.00
2022-08-30T11:57:38.916Z,76.30
2022-08-30T12:00:12.327Z,75.40
2022-08-30T12:02:48.693Z,74.70
2022-08-30T12:05:48.015Z,74.40
2022-08-30T12:08:44.746Z,74.20
2022-08-30T12:12:02.296Z,73.70
2022-08-30T12:14:54.438Z,73.50
2022-08-30T12:17:48.190Z,73.40
2022-08-30T12:20:28.354Z,72.80
2022-08-30T12:22:58.146Z,72.50
2022-08-30T12:25:30.781Z,71.90
2022-08-30T12:28:14.174Z,71.90
2022-08-30T12:30:43.734Z,71.70
2022-08-30T12:33:24.136Z,71.40
2022-08-30T12:35:59.401Z,71.40
2022-08-30T12:38:29.690Z,70.50
2022-08-30T12:41:00.210Z,70.90
2022-08-30T12:43:40.436Z,71.30
2022-08-30T12:46:16.000Z,71.20
2022-08-30T12:48:45.209Z,70.50
2022-08-30T12:51:36.159Z,70.80
2022-08-30T12:54:08.339Z,69.60
2022-08-30T12:56:55.615Z,69.50
2022-08-30T12:59:54.013Z,69.50
2022-08-30T13:02:29.138Z,68.50
2022-08-30T13:04:58.468Z,69.50
2022-08-30T13:07:33.319Z,69.60
2022-08-30T13:10:12.067Z,70.30
2022-08-30T13:12:40.337Z,69.40
2022-08-30T13:15:17.861Z,69.90
2022-08-30T13:17:47.830Z,69.70
2022-08-30T13:20:25.492Z,69.00
2022-08-30T13:23:06.218Z,68.90
2022-08-30T13:25:34.101Z,68.60
2022-08-30T13:28:04.418Z,68.00
2022-08-30T13:30:32.734Z,68.20
2022-08-30T13:33:02.375Z,68.30
2022-08-30T13:35:31.525Z,67.90
2022-08-30T13:38:01.963Z,67.80
2022-08-30T13:40:30.416Z,67.80
2022-08-30T13:42:58.603Z,68.10
2022-08-30T13:45:42.561Z,67.90
2022-08-30T13:48:13.443Z,67.30
2022-08-30T13:50:42.899Z,66.40
2022-08-30T13:53:11.236Z,65.50
2022-08-30T13:55:41.402Z,66.20
2022-08-30T13:58:10.694Z,65.40
2022-08-30T14:00:41.866Z,66.70
2022-08-30T14:03:13.063Z,66.60
2022-08-30T14:06:00.592Z,65.00
2022-08-30T14:08:48.567Z,65.80
2022-08-30T14:11:20.919Z,65.60
2022-08-30T14:16:40.410Z,64.60
2022-08-30T14:19:12.172Z,64.60
2022-08-30T14:21:40.204Z,64.80
2022-08-30T14:24:08.787Z,65.00
2022-08-30T14:26:39.399Z,64.80
2022-08-30T14:29:10.198Z,64.60
2022-08-30T14:31:38.875Z,64.30
2022-08-30T14:34:07.806Z,64.80
2022-08-30T14:36:39.438Z,64.80
2022-08-30T14:39:09.216Z,64.40
2022-08-30T14:41:43.760Z,64.20
2022-08-30T14:44:12.532Z,63.50
2022-08-30T14:46:40.961Z,63.20
2022-08-30T14:49:10.248Z,63.10
2022-08-30T14:51:41.480Z,63.00
2022-08-30T14:54:10.347Z,63.00
2022-08-30T14:56:39.376Z,62.90
2022-08-30T14:59:07.517Z,62.50
2022-08-30T15:01:37.141Z,62.30
2022-08-30T15:04:07.472Z,62.00
2022-08-30T15:06:35.889Z,62.40
2022-08-30T15:09:06.797Z,62.40
2022-08-30T15:11:35.414Z,62.20
2022-08-30T15:14:03.306Z,62.30
2022-08-30T15:16:34.811Z,62.60
2022-08-30T15:19:03.599Z,62.00
2022-08-30T15:21:34.224Z,61.90
2022-08-30T15:24:06.726Z,62.40
2022-08-30T15:26:36.166Z,62.20
2022-08-30T15:29:04.716Z,62.10
2022-08-30T15:31:32.898Z,62.40
2022-08-30T15:34:01.254Z,62.30
2022-08-30T15:36:30.151Z,61.90
2022-08-30T15:38:59.923Z,62.50
2022-08-30T15:41:29.889Z,62.10
2022-08-30T15:43:59.445Z,62.10
2022-08-30T15:46:31.872Z,62.10
2022-08-30T15:49:03.783Z,61.50
2022-08-30T15:51:41.940Z,61.50
2022-08-30T15:54:15.298Z,61.60
2022-08-30T15:56:46.106Z,61.50
2022-08-30T15:59:17.427Z,60.20
2022-08-30T16:01:47.647Z,60.40
2022-08-30T16:04:17.044Z,60.60
2022-08-30T16:06:47.034Z,60.70
2022-08-30T16:09:14.925Z,60.20
2022-08-30T16:11:43.149Z,60.10
2022-08-30T16:14:12.452Z,60.10
2022-08-30T16:16:43.613Z,60.50
2022-08-30T16:19:11.678Z,60.80
2022-08-30T16:21:41.535Z,60.60
2022-08-30T16:24:13.626Z,60.10
2022-08-30T16:26:42.954Z,60.60
2022-08-30T16:29:16.398Z,60.10
2022-08-30T16:31:45.377Z,60.00
2022-08-30T16:34:17.654Z,60.30
2022-08-30T16:36:46.170Z,60.50
2022-08-30T16:39:14.186Z,60.40
2022-08-30T16:41:44.744Z,60.00
2022-08-30T16:44:15.903Z,60.30
2022-08-30T16:46:53.796Z,60.20
2022-08-30T16:49:22.856Z,60.60
2022-08-30T16:51:50.826Z,61.00
2022-08-30T16:54:20.721Z,61.00
2022-08-30T16:56:48.615Z,60.50
2022-08-30T16:59:18.875Z,61.00
2022-08-30T17:01:48.242Z,61.50
2022-08-30T17:04:18.375Z,61.50
2022-08-30T17:06:47.746Z,61.20
2022-08-30T17:09:18.074Z,61.80
2022-08-30T17:11:46.513Z,61.20
2022-08-30T17:14:14.602Z,61.30
2022-08-30T17:16:43.851Z,62.20
2022-08-30T17:19:13.476Z,62.20
2022-08-30T17:21:41.366Z,62.30
2022-08-30T17:24:09.275Z,62.40
2022-08-30T17:26:38.344Z,62.50
2022-08-30T17:29:07.778Z,63.10
2022-08-30T17:31:37.433Z,63.60
2022-08-30T17:34:06.934Z,64.10
2022-08-30T17:36:36.988Z,64.30
2022-08-30T17:39:10.915Z,64.70
2022-08-30T17:41:39.965Z,64.30
2022-08-30T17:44:13.785Z,64.80
2022-08-30T17:46:41.987Z,64.50
2022-08-30T17:49:11.850Z,64.70
2022-08-30T17:51:42.674Z,65.00
2022-08-30T17:54:11.976Z,65.00
2022-08-30T17:56:39.908Z,65.00
2022-08-30T17:59:09.197Z,64.50
2022-08-30T18:01:37.888Z,64.50
2022-08-30T18:04:06.652Z,64.50
2022-08-30T18:06:36.502Z,64.90
2022-08-30T18:09:06.620Z,65.30
2022-08-30T18:11:36.189Z,65.50
2022-08-30T18:14:05.103Z,65.80
2022-08-30T18:16:33.545Z,66.70
2022-08-30T18:19:03.841Z,66.50
2022-08-30T18:21:31.759Z,67.00
2022-08-30T18:24:01.506Z,67.60
2022-08-30T18:26:29.569Z,68.40
2022-08-30T18:28:57.378Z,68.70
2022-08-30T18:31:27.376Z,68.90
2022-08-30T18:33:58.885Z,69.10
2022-08-30T18:36:28.198Z,69.40
2022-08-30T18:38:56.532Z,69.80
2022-08-30T18:41:27.558Z,70.00
2022-08-30T18:44:23.975Z,70.90
2022-08-30T18:46:55.831Z,70.60
2022-08-30T18:49:24.527Z,70.80
2022-08-30T18:51:52.489Z,70.80
2022-08-30T18:54:20.663Z,70.90
2022-08-30T18:56:50.083Z,71.10
2022-08-30T18:59:20.096Z,71.20
2022-08-30T19:01:49.169Z,71.40
2022-08-30T19:04:29.722Z,71.40
2022-08-30T19:07:05.278Z,71.30
2022-08-30T19:09:33.257Z,71.60
2022-08-30T19:12:02.904Z,71.70
2022-08-30T19:14:31.299Z,71.70
2022-08-30T19:17:02.025Z,71.60
2022-08-30T19:19:32.685Z,71.40
2022-08-30T19:22:02.922Z,71.50
2022-08-30T19:24:30.770Z,71.60
2022-08-30T19:27:00.351Z,71.30
2022-08-30T19:29:29.712Z,71.20
2022-08-30T19:31:58.800Z,71.30
2022-08-30T19:34:26.634Z,71.30
2022-08-30T19:36:55.963Z,71.20
2022-08-30T19:39:24.124Z,71.50
2022-08-30T19:41:52.066Z,72.00
2022-08-30T19:44:19.985Z,72.50
2022-08-30T19:46:51.547Z,72.80
2022-08-30T19:49:19.634Z,73.60
2022-08-30T19:51:49.895Z,73.40
2022-08-30T19:54:17.997Z,73.10
2022-08-30T19:56:45.890Z,72.80
2022-08-30T19:59:16.163Z,72.60
2022-08-30T20:01:45.786Z,73.10
2022-08-30T20:04:15.899Z,73.40
2022-08-30T20:06:44.883Z,73.10
2022-08-30T20:09:12.936Z,72.90
2022-08-30T20:11:42.236Z,72.50
2022-08-30T20:14:13.411Z,72.00
2022-08-30T20:16:41.463Z,71.80
2022-08-30T20:19:10.852Z,71.70
2022-08-30T20:21:40.058Z,71.90
2022-08-30T20:24:10.091Z,72.00
2022-08-30T20:26:38.479Z,73.10
2022-08-30T20:29:07.374Z,73.20
2022-08-30T20:31:36.054Z,73.30
2022-08-30T20:34:05.048Z,73.90
2022-08-30T20:36:33.597Z,74.00
2022-08-30T20:39:04.418Z,74.20
2022-08-30T20:41:32.226Z,74.80
2022-08-30T20:44:01.790Z,74.70
2022-08-30T20:46:34.018Z,74.40
2022-08-30T20:49:03.305Z,74.00
2022-08-30T20:51:31.238Z,74.10
2022-08-30T20:54:03.997Z,74.30
2022-08-30T20:56:32.218Z,74.50
2022-08-30T20:59:01.879Z,74.80
2022-08-30T21:01:30.986Z,74.50
2022-08-30T21:03:59.337Z,74.40
2022-08-30T21:06:27.193Z,73.70
2022-08-30T21:08:55.141Z,72.90
2022-08-30T21:11:24.386Z,72.50
2022-08-30T21:13:52.639Z,72.00
2022-08-30T21:16:22.070Z,71.80
2022-08-30T21:18:50.527Z,71.20
2022-08-30T21:21:21.419Z,71.20
2022-08-30T21:23:50.081Z,70.80
2022-08-30T21:26:19.175Z,70.60
2022-08-30T21:28:49.332Z,70.70
2022-08-30T21:31:19.360Z,70.60
2022-08-30T21:33:48.666Z,70.50
2022-08-30T21:36:34.737Z,70.50
2022-08-30T21:39:02.949Z,70.60
2022-08-30T21:41:32.357Z,70.20
2022-08-30T21:44:03.254Z,70.40
2022-08-30T21:46:32.229Z,70.00
2022-08-30T21:49:02.219Z,70.30
2022-08-30T21:51:32.546Z,70.20
2022-08-30T21:54:02.391Z,70.30
2022-08-30T21:56:30.771Z,70.00
2022-08-30T21:58:58.665Z,70.60
2022-08-30T22:01:30.351Z,70.00
2022-08-30T22:04:00.113Z,70.10
2022-08-30T22:06:31.061Z,70.20
2022-08-30T22:09:01.057Z,70.20
2022-08-30T22:11:30.986Z,70.20
2022-08-30T22:13:59.465Z,70.10
2022-08-30T22:16:30.601Z,70.40
2022-08-30T22:18:58.841Z,70.30
2022-08-30T22:21:28.977Z,70.40
2022-08-30T22:23:57.682Z,70.90
2022-08-30T22:26:26.527Z,70.30
2022-08-30T22:28:55.209Z,70.40
2022-08-30T22:31:24.265Z,70.60
2022-08-30T22:33:55.223Z,70.50
2022-08-30T22:36:23.949Z,70.50
2022-08-30T22:39:02.285Z,70.30
2022-08-30T22:41:32.694Z,70.60
2022-08-30T22:44:01.974Z,70.70
2022-08-30T22:46:33.850Z,70.80
2022-08-30T22:49:05.397Z,70.70
2022-08-30T22:51:34.002Z,70.70
2022-08-30T22:54:02.834Z,70.90
2022-08-30T22:56:31.197Z,70.80
2022-08-30T22:58:59.160Z,71.00
2022-08-30T23:01:30.683Z,71.10
2022-08-30T23:04:00.974Z,71.00
2022-08-30T23:06:30.978Z,71.20
2022-08-30T23:09:00.507Z,71.30
2022-08-30T23:11:29.477Z,71.40
2022-08-30T23:14:00.989Z,71.30
2022-08-30T23:16:28.940Z,71.50
2022-08-30T23:18:56.863Z,71.70
2022-08-30T23:21:27.010Z,71.70
2022-08-30T23:24:15.768Z,71.90
2022-08-30T23:27:03.068Z,71.90
2022-08-30T23:29:49.126Z,72.20
2022-08-30T23:32:34.771Z,72.30
2022-08-30T23:35:20.004Z,72.50
2022-08-30T23:38:10.360Z,72.60
2022-08-30T23:40:57.289Z,72.60
2022-08-30T23:43:42.447Z,72.80
2022-08-30T23:46:27.734Z,72.90
2022-08-30T23:49:12.874Z,73.00
2022-08-30T23:51:58.152Z,73.00
2022-08-30T23:54:44.257Z,73.00
2022-08-30T23:57:31.192Z,73.00
